Terminal Aerodrome Forecast
Issued by NWS

Home | Current Version | Previous Version | Text Only | Print | Product List | Glossary On
Versions: 1 2 3 4 5 6 7 8 9 10 11 12 13 14 15 16 17 18 19
000
FTUS46 KSEW 241100
TAFHQM
TAF
KHQM 241132Z 2412/2512 03005KT 5SM -RA BR BKN009 OVC015
     FM241400 24010KT P6SM VCSH OVC015
     FM241800 25012KT P6SM OVC020
     FM250000 25012KT P6SM OVC030
     FM250600 25003KT P6SM OVC025=

USA.gov is the U.S. government's official web portal to all federal, state and local government web resources and services.